sensor_id;sensor_type;location;lat;lon;timestamp;temperature;humidity
59309;DHT22;48433;53.016;-2.260;2023-10-31T00:00:04;11.60;99.90
59309;DHT22;48433;53.016;-2.260;2023-10-31T00:02:32;11.60;99.90
59309;DHT22;48433;53.016;-2.260;2023-10-31T00:05:00;11.60;99.90
59309;DHT22;48433;53.016;-2.260;2023-10-31T00:07:28;11.60;99.90
59309;DHT22;48433;53.016;-2.260;2023-10-31T00:09:57;11.60;99.90
59309;DHT22;48433;53.016;-2.260;2023-10-31T00:12:24;11.50;99.90
59309;DHT22;48433;53.016;-2.260;2023-10-31T00:14:52;11.50;99.90
59309;DHT22;48433;53.016;-2.260;2023-10-31T00:17:20;11.50;99.90
59309;DHT22;48433;53.016;-2.260;2023-10-31T00:19:48;11.50;99.90
59309;DHT22;48433;53.016;-2.260;2023-10-31T00:22:15;11.50;99.90
59309;DHT22;48433;53.016;-2.260;2023-10-31T00:24:43;11.50;99.90
59309;DHT22;48433;53.016;-2.260;2023-10-31T00:27:11;11.50;99.90
59309;DHT22;48433;53.016;-2.260;2023-10-31T00:29:39;11.50;99.90
59309;DHT22;48433;53.016;-2.260;2023-10-31T00:32:06;11.60;99.90
59309;DHT22;48433;53.016;-2.260;2023-10-31T00:34:34;11.70;99.90
59309;DHT22;48433;53.016;-2.260;2023-10-31T00:37:02;11.60;99.90
59309;DHT22;48433;53.016;-2.260;2023-10-31T00:39:30;11.70;99.90
59309;DHT22;48433;53.016;-2.260;2023-10-31T00:41:57;11.70;99.90
59309;DHT22;48433;53.016;-2.260;2023-10-31T00:44:25;11.70;99.90
59309;DHT22;48433;53.016;-2.260;2023-10-31T00:46:53;11.80;99.90
59309;DHT22;48433;53.016;-2.260;2023-10-31T00:49:20;11.80;99.90
59309;DHT22;48433;53.016;-2.260;2023-10-31T00:51:48;11.80;99.90
59309;DHT22;48433;53.016;-2.260;2023-10-31T00:54:16;11.90;99.90
59309;DHT22;48433;53.016;-2.260;2023-10-31T00:56:43;11.90;99.90
59309;DHT22;48433;53.016;-2.260;2023-10-31T00:59:12;11.90;99.90
59309;DHT22;48433;53.016;-2.260;2023-10-31T01:01:42;11.90;99.90
59309;DHT22;48433;53.016;-2.260;2023-10-31T01:04:10;11.90;99.90
59309;DHT22;48433;53.016;-2.260;2023-10-31T01:06:42;11.90;99.90
59309;DHT22;48433;53.016;-2.260;2023-10-31T01:09:10;11.90;99.90
59309;DHT22;48433;53.016;-2.260;2023-10-31T01:11:39;11.90;99.90
59309;DHT22;48433;53.016;-2.260;2023-10-31T01:14:07;12.00;99.90
59309;DHT22;48433;53.016;-2.260;2023-10-31T01:16:34;12.00;99.90
59309;DHT22;48433;53.016;-2.260;2023-10-31T01:19:02;12.00;99.90
59309;DHT22;48433;53.016;-2.260;2023-10-31T01:21:31;12.00;99.90
59309;DHT22;48433;53.016;-2.260;2023-10-31T01:23:59;11.90;99.90
59309;DHT22;48433;53.016;-2.260;2023-10-31T01:26:27;12.00;99.90
59309;DHT22;48433;53.016;-2.260;2023-10-31T01:28:55;11.90;99.90
59309;DHT22;48433;53.016;-2.260;2023-10-31T01:31:22;11.90;99.90
59309;DHT22;48433;53.016;-2.260;2023-10-31T01:33:50;11.90;99.90
59309;DHT22;48433;53.016;-2.260;2023-10-31T01:36:18;11.90;99.90
59309;DHT22;48433;53.016;-2.260;2023-10-31T01:38:46;11.90;99.90
59309;DHT22;48433;53.016;-2.260;2023-10-31T01:41:14;11.90;99.90
59309;DHT22;48433;53.016;-2.260;2023-10-31T01:43:43;11.90;99.90
59309;DHT22;48433;53.016;-2.260;2023-10-31T01:46:11;11.80;99.90
59309;DHT22;48433;53.016;-2.260;2023-10-31T01:48:38;11.80;99.90
59309;DHT22;48433;53.016;-2.260;2023-10-31T01:51:06;11.80;99.90
59309;DHT22;48433;53.016;-2.260;2023-10-31T01:53:35;11.80;99.90
59309;DHT22;48433;53.016;-2.260;2023-10-31T01:56:04;11.80;99.90
59309;DHT22;48433;53.016;-2.260;2023-10-31T01:58:37;11.90;99.90
59309;DHT22;48433;53.016;-2.260;2023-10-31T02:01:05;11.90;99.90
59309;DHT22;48433;53.016;-2.260;2023-10-31T02:03:34;11.80;99.90
59309;DHT22;48433;53.016;-2.260;2023-10-31T02:06:02;11.80;99.90
59309;DHT22;48433;53.016;-2.260;2023-10-31T02:08:30;11.80;99.90
59309;DHT22;48433;53.016;-2.260;2023-10-31T02:10:57;11.70;99.90
59309;DHT22;48433;53.016;-2.260;2023-10-31T02:13:25;11.70;99.90
59309;DHT22;48433;53.016;-2.260;2023-10-31T02:15:53;11.70;99.90
59309;DHT22;48433;53.016;-2.260;2023-10-31T02:18:21;11.70;99.90
59309;DHT22;48433;53.016;-2.260;2023-10-31T02:20:49;11.70;99.90
59309;DHT22;48433;53.016;-2.260;2023-10-31T02:23:17;11.70;99.90
59309;DHT22;48433;53.016;-2.260;2023-10-31T02:25:44;11.70;99.90
59309;DHT22;48433;53.016;-2.260;2023-10-31T02:28:12;11.70;99.90
59309;DHT22;48433;53.016;-2.260;2023-10-31T02:30:41;11.70;99.90
59309;DHT22;48433;53.016;-2.260;2023-10-31T02:33:08;11.70;99.90
59309;DHT22;48433;53.016;-2.260;2023-10-31T02:35:36;11.70;99.90
59309;DHT22;48433;53.016;-2.260;2023-10-31T02:38:04;11.70;99.90
59309;DHT22;48433;53.016;-2.260;2023-10-31T02:40:31;11.70;99.90
59309;DHT22;48433;53.016;-2.260;2023-10-31T02:42:59;11.70;99.90
59309;DHT22;48433;53.016;-2.260;2023-10-31T02:45:27;11.70;99.90
59309;DHT22;48433;53.016;-2.260;2023-10-31T02:47:55;11.70;99.90
59309;DHT22;48433;53.016;-2.260;2023-10-31T02:50:23;11.70;99.90
59309;DHT22;48433;53.016;-2.260;2023-10-31T02:52:51;11.70;99.90
59309;DHT22;48433;53.016;-2.260;2023-10-31T02:55:19;11.70;99.90
59309;DHT22;48433;53.016;-2.260;2023-10-31T02:57:46;11.70;99.90
59309;DHT22;48433;53.016;-2.260;2023-10-31T03:00:14;11.70;99.90
59309;DHT22;48433;53.016;-2.260;2023-10-31T03:02:42;11.70;99.90
59309;DHT22;48433;53.016;-2.260;2023-10-31T03:05:10;11.70;99.90
59309;DHT22;48433;53.016;-2.260;2023-10-31T03:07:38;11.70;99.90
59309;DHT22;48433;53.016;-2.260;2023-10-31T03:10:06;11.60;99.90
59309;DHT22;48433;53.016;-2.260;2023-10-31T03:12:34;11.60;99.90
59309;DHT22;48433;53.016;-2.260;2023-10-31T03:15:03;11.60;99.90
59309;DHT22;48433;53.016;-2.260;2023-10-31T03:17:31;11.60;99.90
59309;DHT22;48433;53.016;-2.260;2023-10-31T03:19:58;11.60;99.90
59309;DHT22;48433;53.016;-2.260;2023-10-31T03:22:26;11.50;99.90
59309;DHT22;48433;53.016;-2.260;2023-10-31T03:24:54;11.50;99.90
59309;DHT22;48433;53.016;-2.260;2023-10-31T03:27:21;11.50;99.90
59309;DHT22;48433;53.016;-2.260;2023-10-31T03:29:50;11.50;99.90
59309;DHT22;48433;53.016;-2.260;2023-10-31T03:32:17;11.50;99.90
59309;DHT22;48433;53.016;-2.260;2023-10-31T03:34:45;11.50;99.90
59309;DHT22;48433;53.016;-2.260;2023-10-31T03:37:13;11.50;99.90
59309;DHT22;48433;53.016;-2.260;2023-10-31T03:39:41;11.50;99.90
59309;DHT22;48433;53.016;-2.260;2023-10-31T03:42:08;11.50;99.90
59309;DHT22;48433;53.016;-2.260;2023-10-31T03:44:36;11.50;99.90
59309;DHT22;48433;53.016;-2.260;2023-10-31T03:47:03;11.50;99.90
59309;DHT22;48433;53.016;-2.260;2023-10-31T03:49:31;11.50;99.90
59309;DHT22;48433;53.016;-2.260;2023-10-31T03:51:59;11.50;99.90
59309;DHT22;48433;53.016;-2.260;2023-10-31T03:54:26;11.40;99.90
59309;DHT22;48433;53.016;-2.260;2023-10-31T03:56:54;11.40;99.90
59309;DHT22;48433;53.016;-2.260;2023-10-31T03:59:22;11.30;99.90
59309;DHT22;48433;53.016;-2.260;2023-10-31T04:01:49;11.30;99.90
59309;DHT22;48433;53.016;-2.260;2023-10-31T04:04:17;11.30;99.90
59309;DHT22;48433;53.016;-2.260;2023-10-31T04:06:44;11.30;99.90
59309;DHT22;48433;53.016;-2.260;2023-10-31T04:09:12;11.20;99.90
59309;DHT22;48433;53.016;-2.260;2023-10-31T04:11:41;11.20;99.90
59309;DHT22;48433;53.016;-2.260;2023-10-31T04:14:10;11.30;99.90
59309;DHT22;48433;53.016;-2.260;2023-10-31T04:16:41;11.30;99.90
59309;DHT22;48433;53.016;-2.260;2023-10-31T04:19:13;11.30;99.90
59309;DHT22;48433;53.016;-2.260;2023-10-31T04:21:41;11.30;99.90
59309;DHT22;48433;53.016;-2.260;2023-10-31T04:24:08;11.30;99.90
59309;DHT22;48433;53.016;-2.260;2023-10-31T04:26:36;11.30;99.90
59309;DHT22;48433;53.016;-2.260;2023-10-31T04:29:03;11.30;99.90
59309;DHT22;48433;53.016;-2.260;2023-10-31T04:31:31;11.30;99.90
59309;DHT22;48433;53.016;-2.260;2023-10-31T04:34:10;11.30;99.90
59309;DHT22;48433;53.016;-2.260;2023-10-31T04:36:38;11.30;99.90
59309;DHT22;48433;53.016;-2.260;2023-10-31T04:39:06;11.30;99.90
59309;DHT22;48433;53.016;-2.260;2023-10-31T04:41:33;11.30;99.90
59309;DHT22;48433;53.016;-2.260;2023-10-31T04:44:01;11.30;99.90
59309;DHT22;48433;53.016;-2.260;2023-10-31T04:46:29;11.40;99.90
59309;DHT22;48433;53.016;-2.260;2023-10-31T04:48:57;11.40;99.90
59309;DHT22;48433;53.016;-2.260;2023-10-31T04:51:24;11.40;99.90
59309;DHT22;48433;53.016;-2.260;2023-10-31T04:53:52;11.30;99.90
59309;DHT22;48433;53.016;-2.260;2023-10-31T04:56:19;11.30;99.90
59309;DHT22;48433;53.016;-2.260;2023-10-31T04:58:47;11.30;99.90
59309;DHT22;48433;53.016;-2.260;2023-10-31T05:01:16;11.20;99.90
59309;DHT22;48433;53.016;-2.260;2023-10-31T05:03:43;11.20;99.90
59309;DHT22;48433;53.016;-2.260;2023-10-31T05:06:11;11.20;99.90
59309;DHT22;48433;53.016;-2.260;2023-10-31T05:08:38;11.20;99.90
59309;DHT22;48433;53.016;-2.260;2023-10-31T05:11:06;11.10;99.90
59309;DHT22;48433;53.016;-2.260;2023-10-31T05:13:34;11.20;99.90
59309;DHT22;48433;53.016;-2.260;2023-10-31T05:16:02;11.20;99.90
59309;DHT22;48433;53.016;-2.260;2023-10-31T05:18:29;11.20;99.90
59309;DHT22;48433;53.016;-2.260;2023-10-31T05:20:57;11.20;99.90
59309;DHT22;48433;53.016;-2.260;2023-10-31T05:23:25;11.20;99.90
59309;DHT22;48433;53.016;-2.260;2023-10-31T05:25:52;11.20;99.90
59309;DHT22;48433;53.016;-2.260;2023-10-31T05:28:20;11.20;99.90
59309;DHT22;48433;53.016;-2.260;2023-10-31T05:30:48;11.30;99.90
59309;DHT22;48433;53.016;-2.260;2023-10-31T05:33:16;11.30;99.90
59309;DHT22;48433;53.016;-2.260;2023-10-31T05:35:44;11.30;99.90
59309;DHT22;48433;53.016;-2.260;2023-10-31T05:38:11;11.30;99.90
59309;DHT22;48433;53.016;-2.260;2023-10-31T05:40:39;11.40;99.90
59309;DHT22;48433;53.016;-2.260;2023-10-31T05:43:06;11.40;99.90
59309;DHT22;48433;53.016;-2.260;2023-10-31T05:45:34;11.40;99.90
59309;DHT22;48433;53.016;-2.260;2023-10-31T05:48:02;11.40;99.90
59309;DHT22;48433;53.016;-2.260;2023-10-31T05:50:30;11.40;99.90
59309;DHT22;48433;53.016;-2.260;2023-10-31T05:52:58;11.40;99.90
59309;DHT22;48433;53.016;-2.260;2023-10-31T05:55:25;11.40;99.90
59309;DHT22;48433;53.016;-2.260;2023-10-31T05:57:53;11.40;99.90
59309;DHT22;48433;53.016;-2.260;2023-10-31T06:00:21;11.40;99.90
59309;DHT22;48433;53.016;-2.260;2023-10-31T06:02:48;11.50;99.90
59309;DHT22;48433;53.016;-2.260;2023-10-31T06:05:16;11.40;99.90
59309;DHT22;48433;53.016;-2.260;2023-10-31T06:07:43;11.50;99.90
59309;DHT22;48433;53.016;-2.260;2023-10-31T06:10:11;11.50;99.90
59309;DHT22;48433;53.016;-2.260;2023-10-31T06:12:39;11.50;99.90
59309;DHT22;48433;53.016;-2.260;2023-10-31T06:15:07;11.50;99.90
59309;DHT22;48433;53.016;-2.260;2023-10-31T06:17:35;11.50;99.90
59309;DHT22;48433;53.016;-2.260;2023-10-31T06:20:03;11.50;99.90
59309;DHT22;48433;53.016;-2.260;2023-10-31T06:22:31;11.60;99.90
59309;DHT22;48433;53.016;-2.260;2023-10-31T06:24:58;11.60;99.90
59309;DHT22;48433;53.016;-2.260;2023-10-31T06:27:26;11.60;99.90
59309;DHT22;48433;53.016;-2.260;2023-10-31T06:29:54;11.60;99.90
59309;DHT22;48433;53.016;-2.260;2023-10-31T06:32:42;11.60;99.90
59309;DHT22;48433;53.016;-2.260;2023-10-31T06:35:10;11.60;99.90
59309;DHT22;48433;53.016;-2.260;2023-10-31T06:37:38;11.60;99.90
59309;DHT22;48433;53.016;-2.260;2023-10-31T06:40:06;11.60;99.90
59309;DHT22;48433;53.016;-2.260;2023-10-31T06:42:35;11.60;99.90
59309;DHT22;48433;53.016;-2.260;2023-10-31T06:45:03;11.60;99.90
59309;DHT22;48433;53.016;-2.260;2023-10-31T06:47:33;11.60;99.90
59309;DHT22;48433;53.016;-2.260;2023-10-31T06:50:01;11.60;99.90
59309;DHT22;48433;53.016;-2.260;2023-10-31T06:52:29;11.60;99.90
59309;DHT22;48433;53.016;-2.260;2023-10-31T06:54:57;11.60;99.90
59309;DHT22;48433;53.016;-2.260;2023-10-31T06:57:25;11.60;99.90
59309;DHT22;48433;53.016;-2.260;2023-10-31T06:59:53;11.70;99.90
59309;DHT22;48433;53.016;-2.260;2023-10-31T07:02:21;11.70;99.90
59309;DHT22;48433;53.016;-2.260;2023-10-31T07:04:48;11.70;99.90
59309;DHT22;48433;53.016;-2.260;2023-10-31T07:07:17;11.70;99.90
59309;DHT22;48433;53.016;-2.260;2023-10-31T07:09:44;11.70;99.90
59309;DHT22;48433;53.016;-2.260;2023-10-31T07:12:12;11.70;99.90
59309;DHT22;48433;53.016;-2.260;2023-10-31T07:14:39;11.70;99.90
59309;DHT22;48433;53.016;-2.260;2023-10-31T07:17:07;11.70;99.90
59309;DHT22;48433;53.016;-2.260;2023-10-31T07:19:34;11.70;99.90
59309;DHT22;48433;53.016;-2.260;2023-10-31T07:22:02;11.70;99.90
59309;DHT22;48433;53.016;-2.260;2023-10-31T07:24:30;11.80;99.90
59309;DHT22;48433;53.016;-2.260;2023-10-31T07:26:58;11.80;99.90
59309;DHT22;48433;53.016;-2.260;2023-10-31T07:29:25;11.80;99.90
59309;DHT22;48433;53.016;-2.260;2023-10-31T07:31:53;11.80;99.90
59309;DHT22;48433;53.016;-2.260;2023-10-31T07:34:20;11.80;99.90
59309;DHT22;48433;53.016;-2.260;2023-10-31T07:36:48;11.90;99.90
59309;DHT22;48433;53.016;-2.260;2023-10-31T07:39:16;11.90;99.90
59309;DHT22;48433;53.016;-2.260;2023-10-31T07:41:43;11.90;99.90
59309;DHT22;48433;53.016;-2.260;2023-10-31T07:44:11;11.90;99.90
59309;DHT22;48433;53.016;-2.260;2023-10-31T07:46:40;11.90;99.90
59309;DHT22;48433;53.016;-2.260;2023-10-31T07:49:07;11.90;99.90
59309;DHT22;48433;53.016;-2.260;2023-10-31T07:51:35;11.90;99.90
59309;DHT22;48433;53.016;-2.260;2023-10-31T07:54:03;12.00;99.90
59309;DHT22;48433;53.016;-2.260;2023-10-31T07:56:30;12.00;99.90
59309;DHT22;48433;53.016;-2.260;2023-10-31T07:59:00;12.00;99.90
59309;DHT22;48433;53.016;-2.260;2023-10-31T08:01:27;12.00;99.90
59309;DHT22;48433;53.016;-2.260;2023-10-31T08:03:55;12.00;99.90
59309;DHT22;48433;53.016;-2.260;2023-10-31T08:06:23;12.00;99.90
59309;DHT22;48433;53.016;-2.260;2023-10-31T08:08:50;12.00;99.90
59309;DHT22;48433;53.016;-2.260;2023-10-31T08:11:18;12.00;99.90
59309;DHT22;48433;53.016;-2.260;2023-10-31T08:13:46;12.10;99.90
59309;DHT22;48433;53.016;-2.260;2023-10-31T08:16:18;12.10;99.90
59309;DHT22;48433;53.016;-2.260;2023-10-31T08:18:47;12.10;99.90
59309;DHT22;48433;53.016;-2.260;2023-10-31T08:21:15;12.10;99.90
59309;DHT22;48433;53.016;-2.260;2023-10-31T08:23:43;12.10;99.90
59309;DHT22;48433;53.016;-2.260;2023-10-31T08:26:13;12.10;99.90
59309;DHT22;48433;53.016;-2.260;2023-10-31T08:28:41;12.10;99.90
59309;DHT22;48433;53.016;-2.260;2023-10-31T08:31:09;12.10;99.90
59309;DHT22;48433;53.016;-2.260;2023-10-31T08:33:36;12.20;99.90
59309;DHT22;48433;53.016;-2.260;2023-10-31T08:36:04;12.10;99.90
59309;DHT22;48433;53.016;-2.260;2023-10-31T08:38:34;12.10;99.90
59309;DHT22;48433;53.016;-2.260;2023-10-31T08:41:02;12.10;99.90
59309;DHT22;48433;53.016;-2.260;2023-10-31T08:43:29;12.10;99.90
59309;DHT22;48433;53.016;-2.260;2023-10-31T08:45:57;12.10;99.90
59309;DHT22;48433;53.016;-2.260;2023-10-31T08:48:26;12.20;99.90
59309;DHT22;48433;53.016;-2.260;2023-10-31T08:50:53;12.30;99.90
59309;DHT22;48433;53.016;-2.260;2023-10-31T08:53:21;12.30;99.90
59309;DHT22;48433;53.016;-2.260;2023-10-31T08:55:50;12.30;99.90
59309;DHT22;48433;53.016;-2.260;2023-10-31T08:58:17;12.40;99.90
59309;DHT22;48433;53.016;-2.260;2023-10-31T09:00:45;12.30;99.90
59309;DHT22;48433;53.016;-2.260;2023-10-31T09:03:13;12.30;99.90
59309;DHT22;48433;53.016;-2.260;2023-10-31T09:05:41;12.30;99.90
59309;DHT22;48433;53.016;-2.260;2023-10-31T09:08:10;12.30;99.90
59309;DHT22;48433;53.016;-2.260;2023-10-31T09:10:38;12.30;99.90
59309;DHT22;48433;53.016;-2.260;2023-10-31T09:13:06;12.30;99.90
59309;DHT22;48433;53.016;-2.260;2023-10-31T09:15:33;12.30;99.90
59309;DHT22;48433;53.016;-2.260;2023-10-31T09:18:01;12.40;99.90
59309;DHT22;48433;53.016;-2.260;2023-10-31T09:20:29;12.40;99.90
59309;DHT22;48433;53.016;-2.260;2023-10-31T09:22:57;12.50;99.90
59309;DHT22;48433;53.016;-2.260;2023-10-31T09:25:25;12.50;99.90
59309;DHT22;48433;53.016;-2.260;2023-10-31T09:27:52;12.60;99.90
59309;DHT22;48433;53.016;-2.260;2023-10-31T09:30:20;12.60;99.90
59309;DHT22;48433;53.016;-2.260;2023-10-31T09:32:48;12.60;99.90
59309;DHT22;48433;53.016;-2.260;2023-10-31T09:35:16;12.70;99.90
59309;DHT22;48433;53.016;-2.260;2023-10-31T09:37:44;12.70;99.90
59309;DHT22;48433;53.016;-2.260;2023-10-31T09:40:16;12.60;99.90
59309;DHT22;48433;53.016;-2.260;2023-10-31T09:42:44;12.70;99.90
59309;DHT22;48433;53.016;-2.260;2023-10-31T09:45:13;12.60;99.90
59309;DHT22;48433;53.016;-2.260;2023-10-31T09:47:40;12.60;99.90
59309;DHT22;48433;53.016;-2.260;2023-10-31T09:50:11;12.60;99.90
59309;DHT22;48433;53.016;-2.260;2023-10-31T09:52:39;12.70;99.90
59309;DHT22;48433;53.016;-2.260;2023-10-31T09:55:08;12.70;99.90
59309;DHT22;48433;53.016;-2.260;2023-10-31T09:57:35;12.70;99.90
59309;DHT22;48433;53.016;-2.260;2023-10-31T10:00:03;12.70;99.90
59309;DHT22;48433;53.016;-2.260;2023-10-31T10:02:36;12.70;99.90
59309;DHT22;48433;53.016;-2.260;2023-10-31T10:05:04;12.70;99.90
59309;DHT22;48433;53.016;-2.260;2023-10-31T10:07:34;12.80;99.90
59309;DHT22;48433;53.016;-2.260;2023-10-31T10:10:01;12.90;99.90
59309;DHT22;48433;53.016;-2.260;2023-10-31T10:12:30;12.80;99.90
59309;DHT22;48433;53.016;-2.260;2023-10-31T10:14:59;12.90;99.90
59309;DHT22;48433;53.016;-2.260;2023-10-31T10:17:26;12.90;99.90
59309;DHT22;48433;53.016;-2.260;2023-10-31T10:20:11;12.90;99.90
59309;DHT22;48433;53.016;-2.260;2023-10-31T10:22:42;13.00;99.90
59309;DHT22;48433;53.016;-2.260;2023-10-31T10:25:11;13.00;99.90
59309;DHT22;48433;53.016;-2.260;2023-10-31T10:27:43;13.00;99.90
59309;DHT22;48433;53.016;-2.260;2023-10-31T10:30:13;13.00;99.90
59309;DHT22;48433;53.016;-2.260;2023-10-31T10:32:41;13.00;99.90
59309;DHT22;48433;53.016;-2.260;2023-10-31T10:35:09;13.00;99.90
59309;DHT22;48433;53.016;-2.260;2023-10-31T10:37:38;13.00;99.90
59309;DHT22;48433;53.016;-2.260;2023-10-31T10:40:08;13.10;99.90
59309;DHT22;48433;53.016;-2.260;2023-10-31T10:42:47;13.20;99.90
59309;DHT22;48433;53.016;-2.260;2023-10-31T10:45:16;13.20;99.90
59309;DHT22;48433;53.016;-2.260;2023-10-31T10:47:47;13.20;99.90
59309;DHT22;48433;53.016;-2.260;2023-10-31T10:50:20;13.10;99.90
59309;DHT22;48433;53.016;-2.260;2023-10-31T10:52:58;13.10;99.90
59309;DHT22;48433;53.016;-2.260;2023-10-31T10:55:28;13.10;99.90
59309;DHT22;48433;53.016;-2.260;2023-10-31T10:58:05;13.10;99.90
59309;DHT22;48433;53.016;-2.260;2023-10-31T11:00:33;13.10;99.90
59309;DHT22;48433;53.016;-2.260;2023-10-31T11:03:03;13.10;99.90
59309;DHT22;48433;53.016;-2.260;2023-10-31T11:05:31;13.10;99.90
59309;DHT22;48433;53.016;-2.260;2023-10-31T11:08:00;13.10;99.90
59309;DHT22;48433;53.016;-2.260;2023-10-31T11:10:29;13.10;99.90
59309;DHT22;48433;53.016;-2.260;2023-10-31T11:12:57;13.20;99.90
59309;DHT22;48433;53.016;-2.260;2023-10-31T11:15:25;13.20;99.90
59309;DHT22;48433;53.016;-2.260;2023-10-31T11:17:55;13.30;99.90
59309;DHT22;48433;53.016;-2.260;2023-10-31T11:20:25;13.30;99.90
59309;DHT22;48433;53.016;-2.260;2023-10-31T11:22:55;13.30;99.90
59309;DHT22;48433;53.016;-2.260;2023-10-31T11:25:27;13.30;99.90
59309;DHT22;48433;53.016;-2.260;2023-10-31T11:28:16;13.30;99.90
59309;DHT22;48433;53.016;-2.260;2023-10-31T11:30:49;13.40;99.90
59309;DHT22;48433;53.016;-2.260;2023-10-31T11:33:21;13.40;99.90
59309;DHT22;48433;53.016;-2.260;2023-10-31T11:36:00;13.40;99.90
59309;DHT22;48433;53.016;-2.260;2023-10-31T11:38:34;13.40;99.90
59309;DHT22;48433;53.016;-2.260;2023-10-31T11:41:03;13.50;99.90
59309;DHT22;48433;53.016;-2.260;2023-10-31T11:46:23;13.50;99.90
59309;DHT22;48433;53.016;-2.260;2023-10-31T11:48:56;13.50;99.90
59309;DHT22;48433;53.016;-2.260;2023-10-31T11:51:25;13.50;99.90
59309;DHT22;48433;53.016;-2.260;2023-10-31T11:53:53;13.40;99.90
59309;DHT22;48433;53.016;-2.260;2023-10-31T11:56:21;13.40;99.90
59309;DHT22;48433;53.016;-2.260;2023-10-31T11:59:01;13.40;99.90
59309;DHT22;48433;53.016;-2.260;2023-10-31T12:01:29;13.40;99.90
59309;DHT22;48433;53.016;-2.260;2023-10-31T12:03:57;13.50;99.90
59309;DHT22;48433;53.016;-2.260;2023-10-31T12:06:24;13.50;99.90
59309;DHT22;48433;53.016;-2.260;2023-10-31T12:08:52;13.50;99.90
59309;DHT22;48433;53.016;-2.260;2023-10-31T12:11:22;13.60;99.90
59309;DHT22;48433;53.016;-2.260;2023-10-31T12:16:27;13.80;99.90
59309;DHT22;48433;53.016;-2.260;2023-10-31T12:18:56;13.80;99.90
59309;DHT22;48433;53.016;-2.260;2023-10-31T12:24:12;13.90;99.90
59309;DHT22;48433;53.016;-2.260;2023-10-31T12:26:40;13.90;99.90
59309;DHT22;48433;53.016;-2.260;2023-10-31T12:29:10;13.90;99.90
59309;DHT22;48433;53.016;-2.260;2023-10-31T12:31:43;14.00;99.90
59309;DHT22;48433;53.016;-2.260;2023-10-31T12:34:14;14.10;99.90
59309;DHT22;48433;53.016;-2.260;2023-10-31T12:36:43;14.10;99.90
59309;DHT22;48433;53.016;-2.260;2023-10-31T12:39:12;14.20;99.90
59309;DHT22;48433;53.016;-2.260;2023-10-31T12:41:40;14.40;99.90
59309;DHT22;48433;53.016;-2.260;2023-10-31T12:44:09;14.80;99.90
59309;DHT22;48433;53.016;-2.260;2023-10-31T12:46:41;14.80;99.90
59309;DHT22;48433;53.016;-2.260;2023-10-31T12:49:13;14.90;99.90
59309;DHT22;48433;53.016;-2.260;2023-10-31T12:52:03;14.90;99.90
59309;DHT22;48433;53.016;-2.260;2023-10-31T12:54:33;15.00;99.90
59309;DHT22;48433;53.016;-2.260;2023-10-31T12:57:06;14.90;99.90
59309;DHT22;48433;53.016;-2.260;2023-10-31T12:59:36;14.80;99.90
59309;DHT22;48433;53.016;-2.260;2023-10-31T13:02:05;14.80;99.90
59309;DHT22;48433;53.016;-2.260;2023-10-31T13:04:34;14.70;99.90
59309;DHT22;48433;53.016;-2.260;2023-10-31T13:07:04;14.70;99.90
59309;DHT22;48433;53.016;-2.260;2023-10-31T13:09:33;14.70;99.90
59309;DHT22;48433;53.016;-2.260;2023-10-31T13:12:05;14.70;99.90
59309;DHT22;48433;53.016;-2.260;2023-10-31T13:14:33;14.80;99.90
59309;DHT22;48433;53.016;-2.260;2023-10-31T13:17:02;14.80;99.90
59309;DHT22;48433;53.016;-2.260;2023-10-31T13:19:31;14.80;99.90
59309;DHT22;48433;53.016;-2.260;2023-10-31T13:21:58;14.90;99.90
59309;DHT22;48433;53.016;-2.260;2023-10-31T13:24:26;15.10;99.90
59309;DHT22;48433;53.016;-2.260;2023-10-31T13:29:21;15.40;99.90
59309;DHT22;48433;53.016;-2.260;2023-10-31T13:31:53;15.60;99.90
59309;DHT22;48433;53.016;-2.260;2023-10-31T13:34:20;15.60;99.90
59309;DHT22;48433;53.016;-2.260;2023-10-31T13:36:48;15.60;99.90
59309;DHT22;48433;53.016;-2.260;2023-10-31T13:39:20;15.50;99.90
59309;DHT22;48433;53.016;-2.260;2023-10-31T13:41:49;15.40;99.90
59309;DHT22;48433;53.016;-2.260;2023-10-31T13:44:16;15.20;99.90
59309;DHT22;48433;53.016;-2.260;2023-10-31T13:46:44;15.30;99.90
59309;DHT22;48433;53.016;-2.260;2023-10-31T13:49:11;15.20;99.90
59309;DHT22;48433;53.016;-2.260;2023-10-31T13:51:40;15.20;99.90
59309;DHT22;48433;53.016;-2.260;2023-10-31T13:54:07;15.20;99.90
59309;DHT22;48433;53.016;-2.260;2023-10-31T13:56:35;15.20;99.90
59309;DHT22;48433;53.016;-2.260;2023-10-31T13:59:03;15.20;99.90
59309;DHT22;48433;53.016;-2.260;2023-10-31T14:01:31;15.20;99.90
59309;DHT22;48433;53.016;-2.260;2023-10-31T14:03:59;15.00;99.90
59309;DHT22;48433;53.016;-2.260;2023-10-31T14:06:27;15.00;99.90
59309;DHT22;48433;53.016;-2.260;2023-10-31T14:09:01;15.00;99.90
59309;DHT22;48433;53.016;-2.260;2023-10-31T14:11:32;15.00;99.90
59309;DHT22;48433;53.016;-2.260;2023-10-31T14:14:01;15.20;99.90
59309;DHT22;48433;53.016;-2.260;2023-10-31T14:16:38;15.20;99.90
59309;DHT22;48433;53.016;-2.260;2023-10-31T14:19:08;15.30;99.90
59309;DHT22;48433;53.016;-2.260;2023-10-31T14:21:36;15.40;99.90
59309;DHT22;48433;53.016;-2.260;2023-10-31T14:24:04;15.60;99.90
59309;DHT22;48433;53.016;-2.260;2023-10-31T14:26:39;15.50;99.90
59309;DHT22;48433;53.016;-2.260;2023-10-31T14:29:10;15.60;99.90
59309;DHT22;48433;53.016;-2.260;2023-10-31T14:31:40;15.60;99.90
59309;DHT22;48433;53.016;-2.260;2023-10-31T14:34:09;15.50;99.90
59309;DHT22;48433;53.016;-2.260;2023-10-31T14:36:37;15.40;99.90
59309;DHT22;48433;53.016;-2.260;2023-10-31T14:39:05;15.30;99.90
59309;DHT22;48433;53.016;-2.260;2023-10-31T14:41:32;15.10;99.90
59309;DHT22;48433;53.016;-2.260;2023-10-31T14:44:02;14.90;99.90
59309;DHT22;48433;53.016;-2.260;2023-10-31T14:46:30;14.90;99.90
59309;DHT22;48433;53.016;-2.260;2023-10-31T14:48:58;14.90;99.90
59309;DHT22;48433;53.016;-2.260;2023-10-31T14:51:26;14.80;99.90
59309;DHT22;48433;53.016;-2.260;2023-10-31T14:53:53;14.80;99.90
59309;DHT22;48433;53.016;-2.260;2023-10-31T14:56:21;14.80;99.90
59309;DHT22;48433;53.016;-2.260;2023-10-31T14:58:49;14.80;99.90
59309;DHT22;48433;53.016;-2.260;2023-10-31T15:01:17;14.70;99.90
59309;DHT22;48433;53.016;-2.260;2023-10-31T15:03:45;14.60;99.90
59309;DHT22;48433;53.016;-2.260;2023-10-31T15:06:13;14.50;99.90
59309;DHT22;48433;53.016;-2.260;2023-10-31T15:08:43;14.50;99.90
59309;DHT22;48433;53.016;-2.260;2023-10-31T15:11:11;14.50;99.90
59309;DHT22;48433;53.016;-2.260;2023-10-31T15:13:38;14.40;99.90
59309;DHT22;48433;53.016;-2.260;2023-10-31T15:16:07;14.40;99.90
59309;DHT22;48433;53.016;-2.260;2023-10-31T15:18:35;14.30;99.90
59309;DHT22;48433;53.016;-2.260;2023-10-31T15:21:03;14.30;99.90
59309;DHT22;48433;53.016;-2.260;2023-10-31T15:23:31;14.20;99.90
59309;DHT22;48433;53.016;-2.260;2023-10-31T15:25:58;14.20;99.90
59309;DHT22;48433;53.016;-2.260;2023-10-31T15:28:26;14.20;99.90
59309;DHT22;48433;53.016;-2.260;2023-10-31T15:30:54;14.10;99.90
59309;DHT22;48433;53.016;-2.260;2023-10-31T15:33:21;14.10;99.90